createdAt,value
2022-09-12T00:00:04.851Z,26.33
2022-09-12T00:02:33.135Z,26.32
2022-09-12T00:05:06.287Z,26.31
2022-09-12T00:07:35.275Z,26.22
2022-09-12T00:10:03.510Z,26.10
2022-09-12T00:12:32.053Z,26.16
2022-09-12T00:15:03.214Z,26.24
2022-09-12T00:17:31.895Z,26.22
2022-09-12T00:20:05.827Z,26.23
2022-09-12T00:22:34.587Z,26.18
2022-09-12T00:25:03.592Z,26.10
2022-09-12T00:27:31.911Z,26.08
2022-09-12T00:30:02.759Z,26.05
2022-09-12T00:32:33.890Z,25.99
2022-09-12T00:35:03.723Z,25.90
2022-09-12T00:37:32.133Z,25.84
2022-09-12T00:40:03.429Z,25.83
2022-09-12T00:42:31.658Z,25.79
2022-09-12T00:45:03.261Z,25.74
2022-09-12T00:47:33.068Z,25.68
2022-09-12T00:50:12.496Z,25.62
2022-09-12T00:52:46.416Z,25.55
2022-09-12T00:55:47.508Z,25.51
2022-09-12T00:58:45.732Z,25.47
2022-09-12T01:01:18.104Z,25.44
2022-09-12T01:04:04.206Z,25.40
2022-09-12T01:06:41.721Z,25.38
2022-09-12T01:09:31.481Z,25.38
2022-09-12T01:12:03.769Z,25.35
2022-09-12T01:17:42.076Z,25.35
2022-09-12T01:20:35.119Z,25.32
2022-09-12T01:23:13.680Z,25.30
2022-09-12T01:26:34.159Z,25.28
2022-09-12T01:29:32.645Z,25.22
2022-09-12T01:32:40.672Z,25.19
2022-09-12T01:35:38.108Z,25.17
2022-09-12T01:38:41.148Z,25.15
2022-09-12T01:42:03.318Z,25.11
2022-09-12T01:44:43.504Z,25.08
2022-09-12T01:47:54.656Z,25.08
2022-09-12T01:50:35.135Z,25.04
2022-09-12T01:53:39.066Z,25.01
2022-09-12T01:56:27.829Z,24.97
2022-09-12T01:59:49.790Z,24.94
2022-09-12T02:02:38.855Z,24.89
2022-09-12T02:05:35.653Z,24.86
2022-09-12T02:08:46.252Z,24.82
2022-09-12T02:11:40.844Z,24.78
2022-09-12T02:14:35.198Z,24.76
2022-09-12T02:17:30.936Z,24.72
2022-09-12T02:20:47.494Z,24.70
2022-09-12T02:23:33.983Z,24.66
2022-09-12T02:26:31.224Z,24.62
2022-09-12T02:28:59.632Z,24.61
2022-09-12T02:45:01.044Z,24.45
2022-09-12T02:47:35.576Z,24.34
2022-09-12T02:50:06.230Z,24.30
2022-09-12T02:52:56.945Z,24.30
2022-09-12T02:55:34.429Z,24.22
2022-09-12T02:58:11.298Z,24.13
2022-09-12T03:01:58.572Z,24.07
2022-09-12T03:05:06.740Z,24.04
2022-09-12T03:08:11.353Z,24.11
2022-09-12T03:10:58.729Z,24.16
2022-09-12T03:20:38.940Z,24.11
2022-09-12T03:23:36.542Z,23.97
2022-09-12T03:26:24.322Z,23.88
2022-09-12T03:29:00.142Z,23.88
2022-09-12T03:31:28.625Z,23.90
2022-09-12T03:33:58.611Z,23.90
2022-09-12T03:36:59.045Z,23.92
2022-09-12T03:39:28.868Z,23.84
2022-09-12T03:41:58.407Z,23.77
2022-09-12T03:44:27.305Z,23.67
2022-09-12T03:46:58.252Z,23.55
2022-09-12T03:49:29.422Z,23.40
2022-09-12T03:51:57.628Z,23.31
2022-09-12T03:54:26.443Z,23.28
2022-09-12T03:56:56.952Z,23.21
2022-09-12T03:59:27.523Z,23.15
2022-09-12T04:01:58.816Z,23.08
2022-09-12T04:04:27.103Z,23.01
2022-09-12T04:06:56.165Z,22.93
2022-09-12T04:09:27.386Z,22.85
2022-09-12T04:11:59.382Z,22.81
2022-09-12T04:14:27.560Z,22.73
2022-09-12T04:17:02.343Z,22.70
2022-09-12T04:19:31.049Z,22.68
2022-09-12T04:21:59.286Z,22.65
2022-09-12T04:24:27.467Z,22.63
2022-09-12T04:26:55.857Z,22.63
2022-09-12T04:29:26.882Z,22.60
2022-09-12T04:31:58.391Z,22.56
2022-09-12T04:34:26.916Z,22.52
2022-09-12T04:36:55.448Z,22.47
2022-09-12T04:39:26.443Z,22.43
2022-09-12T04:41:57.367Z,22.35
2022-09-12T04:44:25.513Z,22.33
2022-09-12T04:46:56.601Z,22.32
2022-09-12T04:49:27.445Z,22.30
2022-09-12T04:51:58.400Z,22.25
2022-09-12T04:54:26.234Z,22.19
2022-09-12T04:56:57.299Z,22.16
2022-09-12T04:59:26.199Z,22.14
2022-09-12T05:01:55.095Z,22.14
2022-09-12T05:04:26.032Z,22.14
2022-09-12T05:06:53.976Z,22.08
2022-09-12T05:09:22.562Z,22.04
2022-09-12T05:12:05.071Z,21.99
2022-09-12T05:14:39.952Z,21.91
2022-09-12T05:17:08.268Z,21.88
2022-09-12T05:19:39.439Z,21.84
2022-09-12T05:22:07.772Z,21.82
2022-09-12T05:24:36.817Z,21.80
2022-09-12T05:27:05.649Z,21.77
2022-09-12T05:29:37.837Z,21.76
2022-09-12T05:32:06.484Z,21.76
2022-09-12T05:34:56.085Z,21.74
2022-09-12T05:37:24.801Z,21.72
2022-09-12T05:39:53.779Z,21.70
2022-09-12T05:42:24.872Z,21.70
2022-09-12T05:45:20.802Z,21.70
2022-09-12T05:47:55.676Z,21.69
2022-09-12T05:50:24.210Z,21.68
2022-09-12T05:53:22.481Z,21.68
2022-09-12T05:56:24.613Z,21.67
2022-09-12T05:59:22.879Z,21.67
2022-09-12T06:01:53.772Z,21.67
2022-09-12T06:04:22.141Z,21.68
2022-09-12T06:06:53.473Z,21.69
2022-09-12T06:09:26.547Z,21.67
2022-09-12T06:12:03.559Z,21.71
2022-09-12T06:14:31.834Z,21.73
2022-09-12T06:17:06.811Z,21.77
2022-09-12T06:19:36.311Z,21.77
2022-09-12T06:22:14.471Z,21.73
2022-09-12T06:24:49.828Z,21.70
2022-09-12T06:27:21.028Z,21.72
2022-09-12T06:29:49.664Z,21.74
2022-09-12T06:32:18.440Z,21.72
2022-09-12T06:34:52.948Z,21.70
2022-09-12T06:37:21.102Z,21.66
2022-09-12T06:39:51.986Z,21.64
2022-09-12T06:42:23.272Z,21.58
2022-09-12T06:44:51.435Z,21.56
2022-09-12T06:47:22.658Z,21.56
2022-09-12T06:49:51.833Z,21.56
2022-09-12T06:52:20.073Z,21.53
2022-09-12T06:54:49.983Z,21.51
2022-09-12T06:57:20.830Z,21.49
2022-09-12T06:59:49.428Z,21.45
2022-09-12T07:02:20.608Z,21.42
2022-09-12T07:04:50.807Z,21.38
2022-09-12T07:07:22.253Z,21.37
2022-09-12T07:09:50.899Z,21.34
2022-09-12T07:12:22.056Z,21.35
2022-09-12T07:14:50.308Z,21.33
2022-09-12T07:17:19.251Z,21.30
2022-09-12T07:19:50.131Z,21.27
2022-09-12T07:22:44.933Z,21.26
2022-09-12T07:25:18.679Z,21.24
2022-09-12T07:27:51.136Z,21.23
2022-09-12T07:30:19.839Z,21.22
2022-09-12T07:32:57.535Z,21.19
2022-09-12T07:35:48.810Z,21.12
2022-09-12T07:38:17.795Z,21.03
2022-09-12T07:40:49.212Z,20.99
2022-09-12T07:43:20.229Z,20.95
2022-09-12T07:45:48.512Z,20.85
2022-09-12T07:48:18.249Z,20.84
2022-09-12T07:50:46.826Z,20.84
2022-09-12T07:53:18.594Z,20.84
2022-09-12T07:55:57.253Z,20.83
2022-09-12T07:58:30.717Z,20.80
2022-09-12T08:01:32.558Z,20.82
2022-09-12T08:04:02.893Z,20.80
2022-09-12T08:06:34.941Z,20.75
2022-09-12T08:09:03.938Z,20.72
2022-09-12T08:11:35.785Z,20.66
2022-09-12T08:14:06.414Z,20.60
2022-09-12T08:16:38.478Z,20.52
2022-09-12T08:19:13.201Z,20.46
2022-09-12T08:21:41.512Z,20.44
2022-09-12T08:24:38.033Z,20.40
2022-09-12T08:27:40.197Z,20.40
2022-09-12T08:30:09.667Z,20.34
2022-09-12T08:32:37.998Z,20.31
2022-09-12T08:35:15.869Z,20.28
2022-09-12T08:37:44.653Z,20.29
2022-09-12T08:40:19.667Z,20.28
2022-09-12T08:43:02.923Z,20.25
2022-09-12T08:46:03.532Z,20.24
2022-09-12T08:48:59.709Z,20.18
2022-09-12T08:51:32.129Z,20.15
2022-09-12T08:54:21.653Z,20.14
2022-09-12T08:57:00.576Z,20.16
2022-09-12T08:59:49.520Z,20.20
2022-09-12T09:02:59.106Z,20.18
2022-09-12T09:05:42.395Z,20.17
2022-09-12T09:08:31.457Z,20.14
2022-09-12T09:11:11.991Z,20.09
2022-09-12T09:14:07.903Z,20.03
2022-09-12T09:16:48.245Z,20.00
2022-09-12T09:19:47.679Z,19.97
2022-09-12T09:23:12.773Z,19.97
2022-09-12T09:26:15.524Z,19.93
2022-09-12T09:28:52.970Z,19.89
2022-09-12T09:31:24.285Z,19.88
2022-09-12T09:33:59.858Z,19.88
2022-09-12T09:36:55.853Z,19.88
2022-09-12T09:39:43.300Z,19.85
2022-09-12T09:42:50.710Z,19.83
2022-09-12T09:45:25.006Z,19.77
2022-09-12T09:48:16.001Z,19.76
2022-09-12T09:50:45.094Z,19.74
2022-09-12T09:53:41.602Z,19.73
2022-09-12T09:56:36.854Z,19.71
2022-09-12T09:59:18.385Z,19.68
2022-09-12T10:02:11.216Z,19.65
2022-09-12T10:05:04.242Z,19.63
2022-09-12T10:07:36.473Z,19.62
2022-09-12T10:10:24.829Z,19.65
2022-09-12T10:13:25.222Z,19.65
2022-09-12T10:16:22.825Z,19.65
2022-09-12T10:18:53.396Z,19.61
2022-09-12T10:21:29.190Z,19.56
2022-09-12T10:24:20.027Z,19.55
2022-09-12T10:27:13.941Z,19.51
2022-09-12T10:30:13.967Z,19.48
2022-09-12T10:32:46.375Z,19.44
2022-09-12T10:35:29.883Z,19.43
2022-09-12T10:38:07.965Z,19.38
2022-09-12T10:40:42.118Z,19.38
2022-09-12T10:43:39.270Z,19.38
2022-09-12T10:46:19.093Z,19.35
2022-09-12T10:48:52.538Z,19.32
2022-09-12T10:51:26.580Z,19.32
2022-09-12T10:54:02.214Z,19.30
2022-09-12T10:56:42.921Z,19.29
2022-09-12T10:59:23.765Z,19.25
2022-09-12T11:02:33.656Z,19.22
2022-09-12T11:05:07.474Z,19.19
2022-09-12T11:07:49.358Z,19.17
2022-09-12T11:10:22.092Z,19.15
2022-09-12T11:13:08.586Z,19.14
2022-09-12T11:15:55.680Z,19.15
2022-09-12T11:18:51.733Z,19.14
2022-09-12T11:21:36.061Z,19.13
2022-09-12T11:24:44.132Z,19.11
2022-09-12T11:27:34.187Z,19.05
2022-09-12T11:30:36.133Z,19.06
2022-09-12T11:33:36.866Z,19.03
2022-09-12T11:36:32.165Z,18.97
2022-09-12T11:39:18.765Z,18.99
2022-09-12T11:42:10.880Z,18.95
2022-09-12T11:44:51.261Z,18.93
2022-09-12T11:47:42.699Z,18.92
2022-09-12T11:50:30.093Z,18.93
2022-09-12T11:53:12.384Z,18.92
2022-09-12T11:56:04.902Z,18.95
2022-09-12T11:58:34.320Z,18.93
2022-09-12T12:01:48.561Z,18.95
2022-09-12T12:04:33.056Z,18.94
2022-09-12T12:07:12.755Z,18.96
2022-09-12T12:10:14.492Z,18.97
2022-09-12T12:12:43.817Z,18.98
2022-09-12T12:15:23.182Z,18.99
2022-09-12T12:18:20.384Z,18.99
2022-09-12T12:20:48.941Z,18.98
2022-09-12T12:23:40.584Z,19.02
2022-09-12T12:26:43.538Z,19.03
2022-09-12T12:29:15.131Z,19.02
2022-09-12T12:32:04.936Z,19.08
2022-09-12T12:34:44.584Z,19.07
2022-09-12T12:37:26.897Z,19.11
2022-09-12T12:40:11.730Z,19.14
2022-09-12T14:47:29.591Z,18.26
2022-09-12T16:16:59.996Z,19.19
2022-09-12T16:22:51.446Z,19.28
2022-09-12T16:25:23.663Z,19.31
2022-09-12T16:27:54.004Z,19.37
2022-09-12T16:30:25.406Z,19.46
2022-09-12T16:33:21.131Z,19.55
2022-09-12T16:36:50.737Z,19.61
2022-09-12T16:39:22.692Z,19.67
2022-09-12T16:42:21.976Z,19.74
2022-09-12T16:45:20.492Z,19.81
2022-09-12T16:47:52.064Z,19.83
2022-09-12T16:50:20.518Z,19.85
2022-09-12T16:53:25.423Z,19.88
2022-09-12T16:56:25.618Z,19.93
2022-09-12T16:58:54.887Z,19.90
2022-09-12T17:08:19.328Z,19.99
2022-09-12T17:10:50.067Z,20.00
2022-09-12T17:13:20.965Z,20.07
2022-09-12T17:15:49.198Z,20.14
2022-09-12T17:18:20.836Z,20.23
2022-09-12T17:20:51.720Z,20.31
2022-09-12T17:23:25.878Z,20.34
2022-09-12T17:25:59.424Z,20.33
2022-09-12T17:29:26.435Z,20.33
2022-09-12T17:31:55.950Z,20.32
2022-09-12T17:34:24.341Z,20.33
2022-09-12T17:37:17.125Z,20.41
2022-09-12T17:39:48.514Z,20.60
2022-09-12T17:42:20.984Z,20.67
2022-09-12T17:44:49.259Z,20.71
2022-09-12T17:47:17.444Z,20.78
2022-09-12T17:49:48.792Z,20.85
2022-09-12T17:52:17.043Z,20.95
2022-09-12T17:54:48.414Z,21.07
2022-09-12T17:57:19.707Z,21.23
2022-09-12T17:59:47.944Z,21.37
2022-09-12T18:02:19.583Z,21.50
2022-09-12T18:04:49.145Z,21.63
2022-09-12T18:07:19.833Z,21.84
2022-09-12T18:09:48.692Z,22.11
2022-09-12T18:12:20.806Z,22.36
2022-09-12T18:14:49.005Z,22.43
2022-09-12T18:17:18.102Z,22.46
2022-09-12T18:19:50.335Z,22.46
2022-09-12T18:23:20.440Z,22.50
2022-09-12T18:26:46.574Z,22.66
2022-09-12T18:29:58.916Z,22.91
2022-09-12T18:32:49.643Z,23.03
2022-09-12T18:35:47.675Z,23.07
2022-09-12T18:38:48.732Z,23.11
2022-09-12T18:41:46.763Z,23.09
2022-09-12T18:44:45.990Z,23.05
2022-09-12T18:50:50.120Z,22.87
2022-09-12T19:00:00.852Z,23.42
2022-09-12T19:02:51.939Z,23.73
2022-09-12T19:05:44.391Z,23.93
2022-09-12T19:08:46.786Z,24.21
2022-09-12T19:14:48.598Z,24.51
2022-09-12T19:20:45.538Z,24.89
2022-09-12T19:23:44.289Z,25.18
2022-09-12T19:26:49.363Z,25.49
2022-09-12T19:29:20.624Z,25.65
2022-09-12T19:31:52.118Z,25.66
2022-09-12T19:35:14.076Z,25.66
2022-09-12T19:37:49.634Z,25.67
2022-09-12T19:40:20.607Z,25.68
2022-09-12T19:42:48.921Z,25.48
2022-09-12T19:45:17.517Z,25.32
2022-09-12T19:47:47.926Z,25.27
2022-09-12T19:50:17.165Z,25.29
2022-09-12T19:52:45.512Z,25.20
2022-09-12T19:55:16.843Z,25.09
2022-09-12T19:57:45.133Z,24.98
2022-09-12T20:00:14.005Z,24.89
2022-09-12T20:02:42.250Z,24.90
2022-09-12T20:05:13.567Z,24.87
2022-09-12T20:07:41.726Z,24.85
2022-09-12T20:14:16.583Z,24.81
2022-09-12T20:17:11.091Z,24.83
2022-09-12T20:19:42.061Z,24.86
2022-09-12T20:22:40.816Z,24.88
2022-09-12T20:25:12.417Z,24.93
2022-09-12T20:35:10.677Z,25.10
2022-09-12T20:43:13.987Z,24.94
2022-09-12T20:51:12.127Z,24.95
2022-09-12T20:53:42.696Z,24.89
2022-09-12T20:56:11.084Z,24.81
2022-09-12T20:58:44.399Z,24.75
2022-09-12T21:01:16.579Z,24.70
2022-09-12T21:04:14.893Z,24.73
2022-09-12T21:07:13.700Z,24.80
2022-09-12T21:09:41.326Z,24.87
2022-09-12T21:12:10.017Z,24.93
2022-09-12T21:14:41.649Z,24.99
2022-09-12T21:17:09.843Z,24.98
2022-09-12T21:19:38.115Z,24.98
2022-09-12T21:22:12.319Z,24.99
2022-09-12T21:24:40.808Z,25.03
2022-09-12T21:27:12.782Z,25.08
2022-09-12T21:29:41.031Z,25.08
2022-09-12T21:32:13.455Z,25.15
2022-09-12T21:34:42.739Z,25.20
2022-09-12T21:37:10.927Z,25.25
2022-09-12T21:39:39.174Z,25.35
2022-09-12T21:42:07.601Z,25.46
2022-09-12T21:44:38.458Z,25.53
2022-09-12T21:47:06.892Z,25.62
2022-09-12T21:49:35.162Z,25.76
2022-09-12T21:52:05.883Z,25.72
2022-09-12T21:54:36.133Z,25.71
2022-09-12T21:57:07.061Z,25.79
2022-09-12T21:59:35.392Z,25.86
2022-09-12T22:02:11.684Z,25.92
2022-09-12T22:04:41.016Z,25.95
2022-09-12T22:07:10.278Z,25.98
2022-09-12T22:09:38.511Z,26.01
2022-09-12T22:12:09.770Z,26.09
2022-09-12T22:14:38.075Z,26.12
2022-09-12T22:17:11.039Z,26.09
2022-09-12T22:19:39.686Z,26.12
2022-09-12T22:22:38.399Z,26.15
2022-09-12T22:25:37.324Z,26.13
2022-09-12T22:28:40.428Z,26.12
2022-09-12T22:31:37.761Z,26.14
2022-09-12T22:34:36.837Z,26.25
2022-09-12T22:40:24.868Z,26.13
2022-09-12T22:47:42.036Z,26.08
2022-09-12T22:50:42.310Z,26.08
2022-09-12T23:06:37.882Z,26.05
2022-09-12T23:16:05.990Z,25.96
2022-09-12T23:19:46.268Z,25.89
